sensor_id;sensor_type;location;lat;lon;timestamp;P1;durP1;ratioP1;P2;durP2;ratioP2
7166;SDS011;3625;51.762;14.320;2024-03-02T00:02:02;19.70;;;17.30;;
7166;SDS011;3625;51.762;14.320;2024-03-02T00:04:37;19.20;;;16.70;;
7166;SDS011;3625;51.762;14.320;2024-03-02T00:07:06;18.40;;;15.45;;
7166;SDS011;3625;51.762;14.320;2024-03-02T00:09:35;19.15;;;16.20;;
7166;SDS011;3625;51.762;14.320;2024-03-02T00:12:05;16.97;;;13.90;;
7166;SDS011;3625;51.762;14.320;2024-03-02T00:14:38;19.20;;;16.13;;
7166;SDS011;3625;51.762;14.320;2024-03-02T00:17:07;20.65;;;15.90;;
7166;SDS011;3625;51.762;14.320;2024-03-02T00:19:46;18.55;;;15.93;;
7166;SDS011;3625;51.762;14.320;2024-03-02T00:22:14;18.30;;;16.37;;
7166;SDS011;3625;51.762;14.320;2024-03-02T00:24:43;16.80;;;14.73;;
7166;SDS011;3625;51.762;14.320;2024-03-02T00:27:16;20.20;;;16.53;;
7166;SDS011;3625;51.762;14.320;2024-03-02T00:29:47;19.42;;;15.90;;
7166;SDS011;3625;51.762;14.320;2024-03-02T00:32:16;17.87;;;15.30;;
7166;SDS011;3625;51.762;14.320;2024-03-02T00:34:45;20.67;;;16.57;;
7166;SDS011;3625;51.762;14.320;2024-03-02T00:37:14;19.05;;;15.55;;
7166;SDS011;3625;51.762;14.320;2024-03-02T00:39:45;18.23;;;15.88;;
7166;SDS011;3625;51.762;14.320;2024-03-02T00:42:18;18.10;;;16.20;;
7166;SDS011;3625;51.762;14.320;2024-03-02T00:44:47;19.77;;;16.60;;
7166;SDS011;3625;51.762;14.320;2024-03-02T00:47:16;18.67;;;16.67;;
7166;SDS011;3625;51.762;14.320;2024-03-02T00:49:45;21.23;;;18.30;;
7166;SDS011;3625;51.762;14.320;2024-03-02T00:52:15;19.53;;;16.90;;
7166;SDS011;3625;51.762;14.320;2024-03-02T00:54:44;18.67;;;16.63;;
7166;SDS011;3625;51.762;14.320;2024-03-02T00:57:13;17.87;;;15.53;;
7166;SDS011;3625;51.762;14.320;2024-03-02T00:59:44;22.38;;;16.25;;
7166;SDS011;3625;51.762;14.320;2024-03-02T01:02:13;22.53;;;18.30;;
7166;SDS011;3625;51.762;14.320;2024-03-02T01:04:42;21.73;;;18.38;;
7166;SDS011;3625;51.762;14.320;2024-03-02T01:07:11;22.92;;;18.60;;
7166;SDS011;3625;51.762;14.320;2024-03-02T01:09:42;20.97;;;17.27;;
7166;SDS011;3625;51.762;14.320;2024-03-02T01:12:11;21.50;;;16.30;;
7166;SDS011;3625;51.762;14.320;2024-03-02T01:14:40;21.23;;;17.83;;
7166;SDS011;3625;51.762;14.320;2024-03-02T01:17:10;21.23;;;17.97;;
7166;SDS011;3625;51.762;14.320;2024-03-02T01:19:41;19.57;;;17.47;;
7166;SDS011;3625;51.762;14.320;2024-03-02T01:22:11;20.97;;;17.93;;
7166;SDS011;3625;51.762;14.320;2024-03-02T01:24:40;21.27;;;17.37;;
7166;SDS011;3625;51.762;14.320;2024-03-02T01:27:08;20.87;;;18.30;;
7166;SDS011;3625;51.762;14.320;2024-03-02T01:29:38;21.03;;;18.07;;
7166;SDS011;3625;51.762;14.320;2024-03-02T01:32:07;21.13;;;17.43;;
7166;SDS011;3625;51.762;14.320;2024-03-02T01:34:39;19.52;;;17.23;;
7166;SDS011;3625;51.762;14.320;2024-03-02T01:37:08;22.13;;;18.27;;
7166;SDS011;3625;51.762;14.320;2024-03-02T01:39:37;19.53;;;17.50;;
7166;SDS011;3625;51.762;14.320;2024-03-02T01:42:06;18.87;;;16.17;;
7166;SDS011;3625;51.762;14.320;2024-03-02T01:44:35;21.33;;;17.60;;
7166;SDS011;3625;51.762;14.320;2024-03-02T01:47:04;20.50;;;16.98;;
7166;SDS011;3625;51.762;14.320;2024-03-02T01:49:33;23.17;;;18.17;;
7166;SDS011;3625;51.762;14.320;2024-03-02T01:52:04;20.80;;;17.95;;
7166;SDS011;3625;51.762;14.320;2024-03-02T01:54:33;19.10;;;16.80;;
7166;SDS011;3625;51.762;14.320;2024-03-02T01:57:06;22.15;;;17.95;;
7166;SDS011;3625;51.762;14.320;2024-03-02T01:59:35;19.92;;;16.95;;
7166;SDS011;3625;51.762;14.320;2024-03-02T02:02:04;21.80;;;17.73;;
7166;SDS011;3625;51.762;14.320;2024-03-02T02:04:33;20.10;;;17.57;;
7166;SDS011;3625;51.762;14.320;2024-03-02T02:07:04;18.50;;;16.30;;
7166;SDS011;3625;51.762;14.320;2024-03-02T02:09:33;20.03;;;17.07;;
7166;SDS011;3625;51.762;14.320;2024-03-02T02:12:02;19.10;;;17.10;;
7166;SDS011;3625;51.762;14.320;2024-03-02T02:14:34;18.67;;;14.53;;
7166;SDS011;3625;51.762;14.320;2024-03-02T02:17:04;21.37;;;18.23;;
7166;SDS011;3625;51.762;14.320;2024-03-02T02:19:33;19.23;;;17.20;;
7166;SDS011;3625;51.762;14.320;2024-03-02T02:22:03;18.00;;;15.75;;
7166;SDS011;3625;51.762;14.320;2024-03-02T02:24:32;20.10;;;17.97;;
7166;SDS011;3625;51.762;14.320;2024-03-02T02:27:01;18.30;;;16.40;;
7166;SDS011;3625;51.762;14.320;2024-03-02T02:29:30;19.80;;;17.43;;
7166;SDS011;3625;51.762;14.320;2024-03-02T02:31:59;19.00;;;16.97;;
7166;SDS011;3625;51.762;14.320;2024-03-02T02:34:27;21.67;;;17.47;;
7166;SDS011;3625;51.762;14.320;2024-03-02T02:36:56;22.00;;;17.33;;
7166;SDS011;3625;51.762;14.320;2024-03-02T02:39:27;19.07;;;15.77;;
7166;SDS011;3625;51.762;14.320;2024-03-02T02:41:56;17.50;;;15.67;;
7166;SDS011;3625;51.762;14.320;2024-03-02T02:44:29;19.47;;;16.70;;
7166;SDS011;3625;51.762;14.320;2024-03-02T02:46:58;19.90;;;16.37;;
7166;SDS011;3625;51.762;14.320;2024-03-02T02:49:26;21.20;;;17.50;;
7166;SDS011;3625;51.762;14.320;2024-03-02T02:51:55;17.53;;;15.73;;
7166;SDS011;3625;51.762;14.320;2024-03-02T02:54:29;20.80;;;17.52;;
7166;SDS011;3625;51.762;14.320;2024-03-02T02:57:02;18.90;;;16.90;;
7166;SDS011;3625;51.762;14.320;2024-03-02T02:59:32;20.90;;;17.27;;
7166;SDS011;3625;51.762;14.320;2024-03-02T03:02:03;18.35;;;16.05;;
7166;SDS011;3625;51.762;14.320;2024-03-02T03:04:33;20.77;;;17.77;;
7166;SDS011;3625;51.762;14.320;2024-03-02T03:07:01;21.70;;;16.90;;
7166;SDS011;3625;51.762;14.320;2024-03-02T03:09:32;19.20;;;16.80;;
7166;SDS011;3625;51.762;14.320;2024-03-02T03:12:01;18.55;;;16.55;;
7166;SDS011;3625;51.762;14.320;2024-03-02T03:14:30;20.55;;;16.40;;
7166;SDS011;3625;51.762;14.320;2024-03-02T03:16:59;19.42;;;15.90;;
7166;SDS011;3625;51.762;14.320;2024-03-02T03:19:28;18.40;;;15.93;;
7166;SDS011;3625;51.762;14.320;2024-03-02T03:21:57;19.98;;;16.35;;
7166;SDS011;3625;51.762;14.320;2024-03-02T03:24:26;17.38;;;15.15;;
7166;SDS011;3625;51.762;14.320;2024-03-02T03:26:56;20.45;;;16.20;;
7166;SDS011;3625;51.762;14.320;2024-03-02T03:29:25;19.90;;;16.40;;
7166;SDS011;3625;51.762;14.320;2024-03-02T03:31:54;17.40;;;15.20;;
7166;SDS011;3625;51.762;14.320;2024-03-02T03:34:22;19.23;;;16.52;;
7166;SDS011;3625;51.762;14.320;2024-03-02T03:36:51;17.50;;;15.70;;
7166;SDS011;3625;51.762;14.320;2024-03-02T03:39:20;17.60;;;14.82;;
7166;SDS011;3625;51.762;14.320;2024-03-02T03:41:49;19.33;;;16.60;;
7166;SDS011;3625;51.762;14.320;2024-03-02T03:44:19;18.85;;;15.73;;
7166;SDS011;3625;51.762;14.320;2024-03-02T03:46:51;20.75;;;16.75;;
7166;SDS011;3625;51.762;14.320;2024-03-02T03:49:19;19.80;;;16.08;;
7166;SDS011;3625;51.762;14.320;2024-03-02T03:51:48;18.92;;;15.73;;
7166;SDS011;3625;51.762;14.320;2024-03-02T03:54:17;18.92;;;16.83;;
7166;SDS011;3625;51.762;14.320;2024-03-02T03:56:47;19.05;;;16.27;;
7166;SDS011;3625;51.762;14.320;2024-03-02T03:59:16;19.53;;;15.83;;
7166;SDS011;3625;51.762;14.320;2024-03-02T04:01:48;18.50;;;16.10;;
7166;SDS011;3625;51.762;14.320;2024-03-02T04:04:17;17.57;;;15.70;;
7166;SDS011;3625;51.762;14.320;2024-03-02T04:06:46;19.47;;;16.83;;
7166;SDS011;3625;51.762;14.320;2024-03-02T04:09:15;19.52;;;15.35;;
7166;SDS011;3625;51.762;14.320;2024-03-02T04:11:44;21.42;;;17.35;;
7166;SDS011;3625;51.762;14.320;2024-03-02T04:14:13;18.87;;;16.23;;
7166;SDS011;3625;51.762;14.320;2024-03-02T04:16:42;19.93;;;16.73;;
7166;SDS011;3625;51.762;14.320;2024-03-02T04:19:12;19.20;;;16.08;;
7166;SDS011;3625;51.762;14.320;2024-03-02T04:21:41;18.00;;;15.73;;
7166;SDS011;3625;51.762;14.320;2024-03-02T04:24:10;18.43;;;16.40;;
7166;SDS011;3625;51.762;14.320;2024-03-02T04:26:38;22.00;;;17.35;;
7166;SDS011;3625;51.762;14.320;2024-03-02T04:29:07;18.50;;;16.20;;
7166;SDS011;3625;51.762;14.320;2024-03-02T04:31:38;18.38;;;16.38;;
7166;SDS011;3625;51.762;14.320;2024-03-02T04:34:07;19.47;;;16.83;;
7166;SDS011;3625;51.762;14.320;2024-03-02T04:36:38;17.53;;;14.93;;
7166;SDS011;3625;51.762;14.320;2024-03-02T04:39:07;21.17;;;17.37;;
7166;SDS011;3625;51.762;14.320;2024-03-02T04:41:37;18.87;;;15.70;;
7166;SDS011;3625;51.762;14.320;2024-03-02T04:44:06;18.03;;;15.47;;
7166;SDS011;3625;51.762;14.320;2024-03-02T04:46:35;19.97;;;15.73;;
7166;SDS011;3625;51.762;14.320;2024-03-02T04:49:04;21.57;;;16.83;;
7166;SDS011;3625;51.762;14.320;2024-03-02T04:51:33;18.33;;;15.20;;
7166;SDS011;3625;51.762;14.320;2024-03-02T04:54:03;17.67;;;15.47;;
7166;SDS011;3625;51.762;14.320;2024-03-02T04:56:34;20.63;;;17.03;;
7166;SDS011;3625;51.762;14.320;2024-03-02T04:59:16;16.40;;;14.33;;
7166;SDS011;3625;51.762;14.320;2024-03-02T05:01:45;19.90;;;17.63;;
7166;SDS011;3625;51.762;14.320;2024-03-02T05:04:14;21.30;;;16.00;;
7166;SDS011;3625;51.762;14.320;2024-03-02T05:06:43;20.70;;;16.77;;
7166;SDS011;3625;51.762;14.320;2024-03-02T05:09:18;20.80;;;17.07;;
7166;SDS011;3625;51.762;14.320;2024-03-02T05:11:48;19.27;;;16.87;;
7166;SDS011;3625;51.762;14.320;2024-03-02T05:14:30;21.07;;;17.23;;
7166;SDS011;3625;51.762;14.320;2024-03-02T05:16:59;23.27;;;17.30;;
7166;SDS011;3625;51.762;14.320;2024-03-02T05:19:28;20.10;;;16.23;;
7166;SDS011;3625;51.762;14.320;2024-03-02T05:21:56;17.97;;;15.60;;
7166;SDS011;3625;51.762;14.320;2024-03-02T05:24:27;18.63;;;15.20;;
7166;SDS011;3625;51.762;14.320;2024-03-02T05:26:56;22.70;;;17.10;;
7166;SDS011;3625;51.762;14.320;2024-03-02T05:29:24;21.60;;;18.02;;
7166;SDS011;3625;51.762;14.320;2024-03-02T05:31:55;18.33;;;15.93;;
7166;SDS011;3625;51.762;14.320;2024-03-02T05:34:23;20.40;;;17.65;;
7166;SDS011;3625;51.762;14.320;2024-03-02T05:36:52;20.17;;;17.87;;
7166;SDS011;3625;51.762;14.320;2024-03-02T05:39:21;19.58;;;17.48;;
7166;SDS011;3625;51.762;14.320;2024-03-02T05:41:51;18.43;;;16.07;;
7166;SDS011;3625;51.762;14.320;2024-03-02T05:44:20;19.00;;;16.37;;
7166;SDS011;3625;51.762;14.320;2024-03-02T05:46:49;18.33;;;16.30;;
7166;SDS011;3625;51.762;14.320;2024-03-02T05:49:17;21.33;;;17.38;;
7166;SDS011;3625;51.762;14.320;2024-03-02T05:51:46;21.67;;;18.17;;
7166;SDS011;3625;51.762;14.320;2024-03-02T05:54:15;22.47;;;17.83;;
7166;SDS011;3625;51.762;14.320;2024-03-02T05:56:50;19.27;;;16.13;;
7166;SDS011;3625;51.762;14.320;2024-03-02T05:59:19;18.83;;;15.57;;
7166;SDS011;3625;51.762;14.320;2024-03-02T06:01:48;21.50;;;17.40;;
7166;SDS011;3625;51.762;14.320;2024-03-02T06:04:18;19.52;;;16.02;;
7166;SDS011;3625;51.762;14.320;2024-03-02T06:06:47;22.43;;;18.03;;
7166;SDS011;3625;51.762;14.320;2024-03-02T06:09:16;21.23;;;18.13;;
7166;SDS011;3625;51.762;14.320;2024-03-02T06:11:46;19.70;;;16.70;;
7166;SDS011;3625;51.762;14.320;2024-03-02T06:14:17;19.10;;;16.67;;
7166;SDS011;3625;51.762;14.320;2024-03-02T06:16:46;21.50;;;18.40;;
7166;SDS011;3625;51.762;14.320;2024-03-02T06:19:15;22.33;;;17.13;;
7166;SDS011;3625;51.762;14.320;2024-03-02T06:21:44;19.02;;;15.93;;
7166;SDS011;3625;51.762;14.320;2024-03-02T06:24:13;22.40;;;17.85;;
7166;SDS011;3625;51.762;14.320;2024-03-02T06:26:42;21.30;;;17.63;;
7166;SDS011;3625;51.762;14.320;2024-03-02T06:29:11;17.37;;;15.43;;
7166;SDS011;3625;51.762;14.320;2024-03-02T06:31:41;20.60;;;16.23;;
7166;SDS011;3625;51.762;14.320;2024-03-02T06:34:10;23.00;;;17.17;;
7166;SDS011;3625;51.762;14.320;2024-03-02T06:36:39;22.60;;;17.93;;
7166;SDS011;3625;51.762;14.320;2024-03-02T06:39:09;19.98;;;17.42;;
7166;SDS011;3625;51.762;14.320;2024-03-02T06:41:39;26.80;;;19.92;;
7166;SDS011;3625;51.762;14.320;2024-03-02T06:44:09;21.63;;;17.97;;
7166;SDS011;3625;51.762;14.320;2024-03-02T06:46:37;26.65;;;20.10;;
7166;SDS011;3625;51.762;14.320;2024-03-02T06:49:08;28.17;;;19.23;;
7166;SDS011;3625;51.762;14.320;2024-03-02T06:51:37;25.97;;;20.20;;
7166;SDS011;3625;51.762;14.320;2024-03-02T06:54:06;25.47;;;21.70;;
7166;SDS011;3625;51.762;14.320;2024-03-02T06:56:35;23.10;;;18.53;;
7166;SDS011;3625;51.762;14.320;2024-03-02T06:59:05;27.97;;;21.23;;
7166;SDS011;3625;51.762;14.320;2024-03-02T07:01:37;28.05;;;22.33;;
7166;SDS011;3625;51.762;14.320;2024-03-02T07:04:05;27.88;;;21.08;;
7166;SDS011;3625;51.762;14.320;2024-03-02T07:06:36;26.50;;;20.80;;
7166;SDS011;3625;51.762;14.320;2024-03-02T07:09:05;28.30;;;22.17;;
7166;SDS011;3625;51.762;14.320;2024-03-02T07:11:37;24.60;;;19.38;;
7166;SDS011;3625;51.762;14.320;2024-03-02T07:14:06;25.42;;;21.05;;
7166;SDS011;3625;51.762;14.320;2024-03-02T07:16:37;26.00;;;20.50;;
7166;SDS011;3625;51.762;14.320;2024-03-02T07:19:08;25.92;;;20.45;;
7166;SDS011;3625;51.762;14.320;2024-03-02T07:21:37;28.73;;;21.95;;
7166;SDS011;3625;51.762;14.320;2024-03-02T07:24:06;27.80;;;22.00;;
7166;SDS011;3625;51.762;14.320;2024-03-02T07:26:39;26.58;;;22.05;;
7166;SDS011;3625;51.762;14.320;2024-03-02T07:29:11;29.23;;;23.40;;
7166;SDS011;3625;51.762;14.320;2024-03-02T07:31:40;29.95;;;24.20;;
7166;SDS011;3625;51.762;14.320;2024-03-02T07:34:10;31.83;;;24.42;;
7166;SDS011;3625;51.762;14.320;2024-03-02T07:36:39;34.53;;;26.05;;
7166;SDS011;3625;51.762;14.320;2024-03-02T07:39:08;39.47;;;27.23;;
7166;SDS011;3625;51.762;14.320;2024-03-02T07:41:37;33.05;;;25.10;;
7166;SDS011;3625;51.762;14.320;2024-03-02T07:44:06;31.52;;;24.15;;
7166;SDS011;3625;51.762;14.320;2024-03-02T07:46:35;32.85;;;24.83;;
7166;SDS011;3625;51.762;14.320;2024-03-02T07:49:04;34.13;;;27.15;;
7166;SDS011;3625;51.762;14.320;2024-03-02T07:51:37;36.85;;;26.98;;
7166;SDS011;3625;51.762;14.320;2024-03-02T07:54:06;36.35;;;25.90;;
7166;SDS011;3625;51.762;14.320;2024-03-02T07:56:38;39.08;;;27.85;;
7166;SDS011;3625;51.762;14.320;2024-03-02T07:59:07;39.40;;;28.65;;
7166;SDS011;3625;51.762;14.320;2024-03-02T08:01:39;35.78;;;27.45;;
7166;SDS011;3625;51.762;14.320;2024-03-02T08:04:08;34.60;;;26.40;;
7166;SDS011;3625;51.762;14.320;2024-03-02T08:06:38;34.33;;;25.50;;
7166;SDS011;3625;51.762;14.320;2024-03-02T08:09:07;32.95;;;24.63;;
7166;SDS011;3625;51.762;14.320;2024-03-02T08:11:39;39.80;;;26.85;;
7166;SDS011;3625;51.762;14.320;2024-03-02T08:14:08;39.80;;;28.90;;
7166;SDS011;3625;51.762;14.320;2024-03-02T08:16:37;34.65;;;26.77;;
7166;SDS011;3625;51.762;14.320;2024-03-02T08:19:05;39.20;;;29.08;;
7166;SDS011;3625;51.762;14.320;2024-03-02T08:21:35;38.10;;;27.48;;
7166;SDS011;3625;51.762;14.320;2024-03-02T08:24:06;34.25;;;26.67;;
7166;SDS011;3625;51.762;14.320;2024-03-02T08:26:35;34.65;;;26.85;;
7166;SDS011;3625;51.762;14.320;2024-03-02T08:29:07;34.85;;;28.92;;
7166;SDS011;3625;51.762;14.320;2024-03-02T08:31:36;35.97;;;27.88;;
7166;SDS011;3625;51.762;14.320;2024-03-02T08:34:08;36.53;;;28.08;;
7166;SDS011;3625;51.762;14.320;2024-03-02T08:36:36;42.08;;;29.58;;
7166;SDS011;3625;51.762;14.320;2024-03-02T08:39:08;43.90;;;30.83;;
7166;SDS011;3625;51.762;14.320;2024-03-02T08:41:42;41.58;;;30.20;;
7166;SDS011;3625;51.762;14.320;2024-03-02T08:44:12;38.60;;;28.60;;
7166;SDS011;3625;51.762;14.320;2024-03-02T08:46:41;40.27;;;30.47;;
7166;SDS011;3625;51.762;14.320;2024-03-02T08:49:11;38.83;;;28.77;;
7166;SDS011;3625;51.762;14.320;2024-03-02T08:51:40;36.20;;;26.38;;
7166;SDS011;3625;51.762;14.320;2024-03-02T08:54:10;40.00;;;30.42;;
7166;SDS011;3625;51.762;14.320;2024-03-02T08:56:40;38.78;;;29.85;;
7166;SDS011;3625;51.762;14.320;2024-03-02T08:59:09;44.90;;;31.90;;
7166;SDS011;3625;51.762;14.320;2024-03-02T09:01:38;41.50;;;29.33;;
7166;SDS011;3625;51.762;14.320;2024-03-02T09:04:08;36.05;;;28.02;;
7166;SDS011;3625;51.762;14.320;2024-03-02T09:06:37;37.78;;;28.55;;
7166;SDS011;3625;51.762;14.320;2024-03-02T09:09:07;35.70;;;27.35;;
7166;SDS011;3625;51.762;14.320;2024-03-02T09:11:37;42.42;;;30.15;;
7166;SDS011;3625;51.762;14.320;2024-03-02T09:14:06;36.90;;;27.05;;
7166;SDS011;3625;51.762;14.320;2024-03-02T09:16:38;36.83;;;28.17;;
7166;SDS011;3625;51.762;14.320;2024-03-02T09:19:07;38.60;;;27.30;;
7166;SDS011;3625;51.762;14.320;2024-03-02T09:21:37;39.85;;;30.02;;
7166;SDS011;3625;51.762;14.320;2024-03-02T09:24:06;43.35;;;29.90;;
7166;SDS011;3625;51.762;14.320;2024-03-02T09:26:34;39.00;;;28.50;;
7166;SDS011;3625;51.762;14.320;2024-03-02T09:29:05;38.00;;;28.00;;
7166;SDS011;3625;51.762;14.320;2024-03-02T09:31:38;36.75;;;27.40;;
7166;SDS011;3625;51.762;14.320;2024-03-02T09:34:07;37.08;;;27.67;;
7166;SDS011;3625;51.762;14.320;2024-03-02T09:36:36;33.30;;;24.85;;
7166;SDS011;3625;51.762;14.320;2024-03-02T09:39:07;41.42;;;29.98;;
7166;SDS011;3625;51.762;14.320;2024-03-02T09:41:36;40.38;;;29.38;;
7166;SDS011;3625;51.762;14.320;2024-03-02T09:44:07;35.33;;;26.88;;
7166;SDS011;3625;51.762;14.320;2024-03-02T09:46:36;33.45;;;25.30;;
7166;SDS011;3625;51.762;14.320;2024-03-02T09:49:05;38.30;;;27.90;;
7166;SDS011;3625;51.762;14.320;2024-03-02T09:51:34;38.53;;;26.95;;
7166;SDS011;3625;51.762;14.320;2024-03-02T09:54:03;37.53;;;27.85;;
7166;SDS011;3625;51.762;14.320;2024-03-02T09:56:47;36.53;;;27.65;;
7166;SDS011;3625;51.762;14.320;2024-03-02T09:59:18;32.97;;;24.30;;
7166;SDS011;3625;51.762;14.320;2024-03-02T10:01:57;35.33;;;25.92;;
7166;SDS011;3625;51.762;14.320;2024-03-02T10:04:29;33.88;;;25.20;;
7166;SDS011;3625;51.762;14.320;2024-03-02T10:07:12;34.50;;;25.10;;
7166;SDS011;3625;51.762;14.320;2024-03-02T10:09:42;32.65;;;26.08;;
7166;SDS011;3625;51.762;14.320;2024-03-02T10:12:13;34.15;;;26.20;;
7166;SDS011;3625;51.762;14.320;2024-03-02T10:14:45;29.95;;;22.58;;
7166;SDS011;3625;51.762;14.320;2024-03-02T10:17:17;32.15;;;25.10;;
7166;SDS011;3625;51.762;14.320;2024-03-02T10:19:45;34.40;;;24.38;;
7166;SDS011;3625;51.762;14.320;2024-03-02T10:22:14;31.95;;;24.55;;
7166;SDS011;3625;51.762;14.320;2024-03-02T10:24:43;28.95;;;22.80;;
7166;SDS011;3625;51.762;14.320;2024-03-02T10:27:15;33.42;;;24.30;;
7166;SDS011;3625;51.762;14.320;2024-03-02T10:29:46;30.52;;;24.10;;
7166;SDS011;3625;51.762;14.320;2024-03-02T10:32:16;30.98;;;23.67;;
7166;SDS011;3625;51.762;14.320;2024-03-02T10:34:45;34.88;;;25.67;;
7166;SDS011;3625;51.762;14.320;2024-03-02T10:37:15;31.15;;;24.10;;
7166;SDS011;3625;51.762;14.320;2024-03-02T10:39:45;32.50;;;23.00;;
7166;SDS011;3625;51.762;14.320;2024-03-02T10:42:15;31.08;;;23.20;;
7166;SDS011;3625;51.762;14.320;2024-03-02T10:44:48;31.05;;;24.13;;
7166;SDS011;3625;51.762;14.320;2024-03-02T10:47:21;30.48;;;23.05;;
7166;SDS011;3625;51.762;14.320;2024-03-02T10:49:50;29.20;;;21.15;;
7166;SDS011;3625;51.762;14.320;2024-03-02T10:52:20;28.63;;;22.40;;
7166;SDS011;3625;51.762;14.320;2024-03-02T10:54:49;31.05;;;22.38;;
7166;SDS011;3625;51.762;14.320;2024-03-02T10:57:19;22.92;;;18.90;;
7166;SDS011;3625;51.762;14.320;2024-03-02T10:59:56;27.33;;;20.00;;
7166;SDS011;3625;51.762;14.320;2024-03-02T11:02:31;23.48;;;18.58;;
7166;SDS011;3625;51.762;14.320;2024-03-02T11:05:05;24.08;;;19.45;;
7166;SDS011;3625;51.762;14.320;2024-03-02T11:07:38;23.17;;;18.05;;
7166;SDS011;3625;51.762;14.320;2024-03-02T11:10:08;24.05;;;18.10;;
7166;SDS011;3625;51.762;14.320;2024-03-02T11:12:38;22.23;;;16.58;;
7166;SDS011;3625;51.762;14.320;2024-03-02T11:15:18;23.27;;;18.55;;
7166;SDS011;3625;51.762;14.320;2024-03-02T11:17:48;24.02;;;17.65;;
7166;SDS011;3625;51.762;14.320;2024-03-02T11:20:18;20.75;;;16.42;;
7166;SDS011;3625;51.762;14.320;2024-03-02T11:22:47;21.85;;;16.98;;
7166;SDS011;3625;51.762;14.320;2024-03-02T11:25:22;22.13;;;16.75;;
7166;SDS011;3625;51.762;14.320;2024-03-02T11:27:59;19.00;;;15.25;;
7166;SDS011;3625;51.762;14.320;2024-03-02T11:33:24;22.02;;;16.13;;
7166;SDS011;3625;51.762;14.320;2024-03-02T11:35:57;19.85;;;15.40;;
7166;SDS011;3625;51.762;14.320;2024-03-02T11:38:29;20.75;;;15.52;;
7166;SDS011;3625;51.762;14.320;2024-03-02T11:41:00;19.85;;;15.82;;
7166;SDS011;3625;51.762;14.320;2024-03-02T11:43:30;19.95;;;16.13;;
7166;SDS011;3625;51.762;14.320;2024-03-02T11:46:02;21.48;;;15.23;;
7166;SDS011;3625;51.762;14.320;2024-03-02T11:48:35;21.80;;;16.30;;
7166;SDS011;3625;51.762;14.320;2024-03-02T11:51:05;20.17;;;15.98;;
7166;SDS011;3625;51.762;14.320;2024-03-02T11:53:33;22.75;;;16.08;;
7166;SDS011;3625;51.762;14.320;2024-03-02T11:56:08;21.15;;;16.00;;
7166;SDS011;3625;51.762;14.320;2024-03-02T11:58:40;17.88;;;14.57;;
7166;SDS011;3625;51.762;14.320;2024-03-02T12:01:11;20.70;;;16.42;;
7166;SDS011;3625;51.762;14.320;2024-03-02T12:03:41;21.23;;;17.08;;
7166;SDS011;3625;51.762;14.320;2024-03-02T12:06:10;21.77;;;16.75;;
7166;SDS011;3625;51.762;14.320;2024-03-02T12:08:40;22.40;;;17.13;;
7166;SDS011;3625;51.762;14.320;2024-03-02T12:11:12;18.65;;;14.88;;
7166;SDS011;3625;51.762;14.320;2024-03-02T12:13:51;21.80;;;16.50;;
7166;SDS011;3625;51.762;14.320;2024-03-02T12:16:24;20.73;;;15.70;;
7166;SDS011;3625;51.762;14.320;2024-03-02T12:18:54;21.58;;;16.02;;
7166;SDS011;3625;51.762;14.320;2024-03-02T12:21:23;17.13;;;13.65;;
7166;SDS011;3625;51.762;14.320;2024-03-02T12:23:53;22.75;;;16.80;;
7166;SDS011;3625;51.762;14.320;2024-03-02T12:26:22;18.88;;;15.93;;
7166;SDS011;3625;51.762;14.320;2024-03-02T12:28:51;17.83;;;14.52;;
7166;SDS011;3625;51.762;14.320;2024-03-02T12:31:25;22.48;;;16.77;;
7166;SDS011;3625;51.762;14.320;2024-03-02T12:33:53;19.83;;;14.95;;
7166;SDS011;3625;51.762;14.320;2024-03-02T12:36:23;21.92;;;16.52;;
7166;SDS011;3625;51.762;14.320;2024-03-02T12:38:52;18.35;;;15.50;;
7166;SDS011;3625;51.762;14.320;2024-03-02T12:41:21;19.33;;;15.55;;
7166;SDS011;3625;51.762;14.320;2024-03-02T12:43:50;19.58;;;14.82;;
7166;SDS011;3625;51.762;14.320;2024-03-02T12:46:21;16.58;;;13.75;;
7166;SDS011;3625;51.762;14.320;2024-03-02T12:48:52;22.63;;;15.93;;
7166;SDS011;3625;51.762;14.320;2024-03-02T12:51:21;17.42;;;13.88;;
7166;SDS011;3625;51.762;14.320;2024-03-02T12:53:53;17.77;;;12.48;;
7166;SDS011;3625;51.762;14.320;2024-03-02T12:56:22;14.52;;;12.07;;
7166;SDS011;3625;51.762;14.320;2024-03-02T12:58:53;16.63;;;12.35;;
7166;SDS011;3625;51.762;14.320;2024-03-02T13:01:28;15.55;;;13.10;;
7166;SDS011;3625;51.762;14.320;2024-03-02T13:03:59;14.95;;;11.18;;
7166;SDS011;3625;51.762;14.320;2024-03-02T13:06:27;13.70;;;10.70;;
7166;SDS011;3625;51.762;14.320;2024-03-02T13:08:57;11.75;;;10.05;;
7166;SDS011;3625;51.762;14.320;2024-03-02T13:11:25;12.70;;;9.45;;
7166;SDS011;3625;51.762;14.320;2024-03-02T13:13:54;9.45;;;7.72;;
7166;SDS011;3625;51.762;14.320;2024-03-02T13:16:24;11.30;;;9.45;;
7166;SDS011;3625;51.762;14.320;2024-03-02T13:18:59;13.88;;;10.05;;
7166;SDS011;3625;51.762;14.320;2024-03-02T13:21:29;10.77;;;8.82;;
7166;SDS011;3625;51.762;14.320;2024-03-02T13:23:59;11.98;;;9.43;;
7166;SDS011;3625;51.762;14.320;2024-03-02T13:26:28;10.45;;;8.75;;
7166;SDS011;3625;51.762;14.320;2024-03-02T13:28:58;10.90;;;8.27;;
7166;SDS011;3625;51.762;14.320;2024-03-02T13:31:27;11.05;;;8.13;;
7166;SDS011;3625;51.762;14.320;2024-03-02T13:33:56;11.00;;;7.80;;
7166;SDS011;3625;51.762;14.320;2024-03-02T13:36:27;9.77;;;8.15;;
7166;SDS011;3625;51.762;14.320;2024-03-02T13:38:55;10.93;;;8.13;;
7166;SDS011;3625;51.762;14.320;2024-03-02T13:41:25;8.48;;;7.40;;
7166;SDS011;3625;51.762;14.320;2024-03-02T13:43:54;12.23;;;8.02;;
7166;SDS011;3625;51.762;14.320;2024-03-02T13:46:23;10.85;;;7.93;;
7166;SDS011;3625;51.762;14.320;2024-03-02T13:48:51;11.50;;;7.65;;
7166;SDS011;3625;51.762;14.320;2024-03-02T13:51:23;10.30;;;8.00;;
7166;SDS011;3625;51.762;14.320;2024-03-02T13:53:55;11.70;;;7.47;;
7166;SDS011;3625;51.762;14.320;2024-03-02T13:56:24;8.57;;;7.30;;
7166;SDS011;3625;51.762;14.320;2024-03-02T13:58:53;9.07;;;6.85;;
7166;SDS011;3625;51.762;14.320;2024-03-02T14:01:22;8.48;;;6.22;;
7166;SDS011;3625;51.762;14.320;2024-03-02T14:03:51;8.93;;;7.15;;
7166;SDS011;3625;51.762;14.320;2024-03-02T14:06:21;8.15;;;6.95;;
7166;SDS011;3625;51.762;14.320;2024-03-02T14:08:50;11.43;;;7.82;;
7166;SDS011;3625;51.762;14.320;2024-03-02T14:11:20;11.40;;;8.02;;
7166;SDS011;3625;51.762;14.320;2024-03-02T14:13:49;7.97;;;6.82;;
7166;SDS011;3625;51.762;14.320;2024-03-02T14:16:21;10.88;;;7.75;;
7166;SDS011;3625;51.762;14.320;2024-03-02T14:18:50;14.02;;;8.50;;
7166;SDS011;3625;51.762;14.320;2024-03-02T14:21:18;12.98;;;8.15;;
7166;SDS011;3625;51.762;14.320;2024-03-02T14:23:47;8.98;;;6.78;;
7166;SDS011;3625;51.762;14.320;2024-03-02T14:26:17;10.70;;;7.55;;
7166;SDS011;3625;51.762;14.320;2024-03-02T14:28:47;11.15;;;8.70;;
7166;SDS011;3625;51.762;14.320;2024-03-02T14:31:18;11.00;;;7.72;;
7166;SDS011;3625;51.762;14.320;2024-03-02T14:33:47;11.70;;;7.93;;
7166;SDS011;3625;51.762;14.320;2024-03-02T14:36:16;12.77;;;8.32;;
7166;SDS011;3625;51.762;14.320;2024-03-02T14:38:46;10.52;;;7.57;;
7166;SDS011;3625;51.762;14.320;2024-03-02T14:41:15;8.05;;;7.05;;
7166;SDS011;3625;51.762;14.320;2024-03-02T14:43:44;10.38;;;8.02;;
7166;SDS011;3625;51.762;14.320;2024-03-02T14:46:14;10.57;;;7.75;;
7166;SDS011;3625;51.762;14.320;2024-03-02T14:48:45;9.70;;;8.10;;
7166;SDS011;3625;51.762;14.320;2024-03-02T14:51:14;11.02;;;7.40;;
7166;SDS011;3625;51.762;14.320;2024-03-02T14:53:43;11.52;;;8.85;;
7166;SDS011;3625;51.762;14.320;2024-03-02T14:56:12;11.32;;;9.52;;